Time;durP1;ratioP1;P1;durP2;ratioP2;P2;SDS_P1;SDS_P2;PMS_P1;PMS_P2;Temp;Humidity;BMP_temperature;BMP_pressure;BME280_temperature;BME280_humidity;BME280_pressure;Samples;Min_cycle;Max_cycle;Signal;HPM_P1;HPM_P2
2023/11/01 00:01:52;;;;;;;71.55;66.35;;;14.00;99.90;;;;;;4967053;28;20043;-73
2023/11/01 00:04:18;;;;;;;73.25;68.05;;;14.10;99.90;;;;;;4969555;28;20488;-72
2023/11/01 00:06:44;;;;;;;59.08;54.83;;;14.00;99.90;;;;;;4953451;28;20047;-73
2023/11/01 00:09:10;;;;;;;76.65;71.72;;;14.10;99.90;;;;;;4955889;28;20392;-73
2023/11/01 00:11:36;;;;;;;45.17;41.55;;;14.10;99.90;;;;;;4960523;28;20035;-72
2023/11/01 00:14:02;;;;;;;69.45;64.88;;;14.00;99.90;;;;;;4954958;29;20031;-73
2023/11/01 00:16:28;;;;;;;83.93;77.97;;;14.00;99.90;;;;;;4953131;28;20055;-72
2023/11/01 00:18:54;;;;;;;58.45;54.25;;;14.00;99.90;;;;;;4953515;29;20039;-73
2023/11/01 00:21:21;;;;;;;40.85;38.03;;;14.00;99.90;;;;;;4963291;28;20054;-73
2023/11/01 00:23:47;;;;;;;49.08;45.17;;;14.00;99.90;;;;;;4974015;28;20042;-73
2023/11/01 00:26:13;;;;;;;56.78;52.65;;;14.00;99.90;;;;;;4964155;28;20400;-73
2023/11/01 00:28:39;;;;;;;38.67;35.25;;;14.00;99.90;;;;;;4953620;29;20054;-73
2023/11/01 00:31:05;;;;;;;38.78;35.33;;;14.00;99.90;;;;;;4955327;28;20408;-73
2023/11/01 00:33:31;;;;;;;37.67;34.53;;;14.10;99.90;;;;;;4954349;29;20392;-73
2023/11/01 00:35:57;;;;;;;38.60;35.42;;;14.00;99.90;;;;;;4954315;28;20033;-73
2023/11/01 00:38:23;;;;;;;42.85;39.20;;;14.00;99.90;;;;;;4954435;29;20396;-73
2023/11/01 00:40:49;;;;;;;31.98;29.13;;;14.00;99.90;;;;;;4960131;28;20062;-73
2023/11/01 00:43:16;;;;;;;34.25;31.50;;;14.00;99.90;;;;;;4973741;28;20493;-72
2023/11/01 00:45:42;;;;;;;52.53;49.15;;;14.00;99.90;;;;;;4968248;28;20043;-73
2023/11/01 00:48:08;;;;;;;36.22;32.72;;;14.00;99.90;;;;;;4954287;29;20388;-73
2023/11/01 00:50:34;;;;;;;55.33;51.28;;;14.00;99.90;;;;;;4953186;28;20058;-73
2023/11/01 00:53:00;;;;;;;44.80;41.38;;;13.90;99.90;;;;;;4961875;28;20472;-72
2023/11/01 00:55:26;;;;;;;41.80;39.03;;;13.90;99.90;;;;;;4970013;28;20035;-73
2023/11/01 00:57:52;;;;;;;50.25;45.88;;;14.00;99.90;;;;;;4954336;29;20027;-72
2023/11/01 01:00:18;;;;;;;77.53;72.40;;;13.90;99.90;;;;;;4953489;28;20043;-72
2023/11/01 01:02:44;;;;;;;57.78;53.85;;;13.80;99.90;;;;;;4962177;28;20693;-73
2023/11/01 01:05:10;;;;;;;73.38;68.43;;;13.80;99.90;;;;;;4953083;28;20044;-73
2023/11/01 01:07:36;;;;;;;72.05;67.20;;;13.80;99.90;;;;;;4988359;28;20476;-72
2023/11/01 01:10:03;;;;;;;67.50;63.08;;;13.90;99.90;;;;;;4988239;28;20043;-73
2023/11/01 01:12:29;;;;;;;72.82;67.80;;;13.90;99.90;;;;;;4954313;28;20040;-73
2023/11/01 01:14:57;;;;;;;52.45;48.92;;;13.90;99.90;;;;;;4954159;29;20043;-73
2023/11/01 01:17:23;;;;;;;49.97;46.58;;;13.90;99.90;;;;;;4952937;28;20067;-73
2023/11/01 01:19:49;;;;;;;29.67;27.50;;;14.00;99.90;;;;;;4954101;29;20054;-73
2023/11/01 01:22:15;;;;;;;37.13;34.03;;;13.90;99.90;;;;;;4954340;28;20490;-73
2023/11/01 01:24:41;;;;;;;71.10;66.13;;;13.90;99.90;;;;;;4972991;28;20476;-73
2023/11/01 01:27:07;;;;;;;66.03;61.67;;;14.00;99.90;;;;;;4972890;28;20050;-72
2023/11/01 01:29:33;;;;;;;54.63;51.00;;;14.00;99.90;;;;;;4972262;28;20042;-72
2023/11/01 01:32:00;;;;;;;57.58;53.40;;;13.90;99.90;;;;;;4971714;28;20039;-73
2023/11/01 01:34:26;;;;;;;36.05;33.15;;;13.90;99.90;;;;;;4973128;28;20592;-73
2023/11/01 01:36:52;;;;;;;46.00;42.55;;;13.90;99.90;;;;;;4959491;28;20035;-73
2023/11/01 01:39:19;;;;;;;50.30;46.97;;;13.90;99.90;;;;;;4953910;29;20051;-73
2023/11/01 01:41:45;;;;;;;33.95;31.33;;;13.90;99.90;;;;;;4954227;28;20032;-73
2023/11/01 01:44:11;;;;;;;29.77;27.33;;;13.90;99.90;;;;;;4969222;28;20146;-72
2023/11/01 01:46:37;;;;;;;33.88;31.65;;;13.80;99.90;;;;;;4970211;28;20043;-73
2023/11/01 01:49:04;;;;;;;43.65;40.90;;;13.90;99.90;;;;;;4972012;28;20046;-73
2023/11/01 01:51:30;;;;;;;43.42;40.72;;;13.90;99.90;;;;;;4961285;28;20035;-73
2023/11/01 01:53:56;;;;;;;58.83;55.00;;;13.90;99.90;;;;;;4952544;29;20039;-73
2023/11/01 01:56:22;;;;;;;49.10;46.05;;;13.90;99.90;;;;;;4952328;28;20496;-73
2023/11/01 01:58:50;;;;;;;44.05;41.47;;;13.90;99.90;;;;;;4954348;28;20042;-73
2023/11/01 02:01:18;;;;;;;47.08;43.80;;;13.90;99.90;;;;;;4963254;28;20416;-73
2023/11/01 02:03:44;;;;;;;49.33;46.35;;;13.80;99.90;;;;;;4959587;28;20035;-72
2023/11/01 02:06:10;;;;;;;44.85;42.28;;;13.80;99.90;;;;;;4956068;28;20031;-73
2023/11/01 02:08:36;;;;;;;40.83;38.17;;;13.80;99.90;;;;;;4956048;29;20501;-73
2023/11/01 02:11:03;;;;;;;42.78;39.90;;;13.80;99.90;;;;;;4967312;28;20035;-72
2023/11/01 02:13:29;;;;;;;53.58;50.13;;;13.80;99.90;;;;;;4956937;29;20031;-72
2023/11/01 02:15:55;;;;;;;47.45;44.50;;;13.70;99.90;;;;;;4955011;28;20054;-72
2023/11/01 02:18:21;;;;;;;42.40;39.63;;;13.70;99.90;;;;;;4957039;29;20031;-72
2023/11/01 02:20:48;;;;;;;50.63;47.40;;;13.80;99.90;;;;;;4966677;28;20050;-73
2023/11/01 02:23:15;;;;;;;46.83;44.13;;;13.80;99.90;;;;;;4955775;28;20031;-73
2023/11/01 02:25:41;;;;;;;50.42;47.17;;;13.70;99.90;;;;;;4955523;28;20027;-72
2023/11/01 02:28:08;;;;;;;48.65;45.67;;;13.70;99.90;;;;;;4956584;29;20404;-73
2023/11/01 02:30:35;;;;;;;48.47;45.72;;;13.70;99.90;;;;;;4949976;28;20496;-72
2023/11/01 02:33:01;;;;;;;46.83;43.63;;;13.70;99.90;;;;;;4956833;29;20032;-72
2023/11/01 02:35:27;;;;;;;49.35;46.17;;;13.70;99.90;;;;;;4955250;28;20049;-73
2023/11/01 02:37:53;;;;;;;43.45;40.80;;;13.60;99.90;;;;;;4939648;29;20042;-72
2023/11/01 02:40:19;;;;;;;48.05;45.25;;;13.60;99.90;;;;;;4948426;28;20044;-72
2023/11/01 02:42:47;;;;;;;39.05;36.47;;;13.50;99.90;;;;;;4974086;28;20038;-73
2023/11/01 02:45:13;;;;;;;40.92;38.53;;;13.50;99.90;;;;;;4957133;28;20043;-72
2023/11/01 02:47:41;;;;;;;38.45;35.70;;;13.50;99.90;;;;;;4956601;29;20392;-73
2023/11/01 02:50:11;;;;;;;44.78;42.17;;;13.40;99.90;;;;;;4948792;28;20038;-72
2023/11/01 02:52:38;;;;;;;40.88;38.45;;;13.30;99.90;;;;;;4974716;28;20039;-72
2023/11/01 02:55:10;;;;;;;39.70;37.08;;;13.30;99.90;;;;;;4970904;28;20046;-73
2023/11/01 02:57:37;;;;;;;49.00;46.08;;;13.30;99.90;;;;;;4954993;29;20035;-71
2023/11/01 03:00:07;;;;;;;52.25;49.33;;;13.30;99.90;;;;;;4947389;28;20058;-68
2023/11/01 03:02:36;;;;;;;37.10;34.30;;;13.30;99.90;;;;;;4967841;28;20031;-72
2023/11/01 03:05:04;;;;;;;38.50;35.97;;;13.30;99.90;;;;;;4971142;28;20046;-72
2023/11/01 03:07:31;;;;;;;56.75;53.53;;;13.30;99.90;;;;;;4954862;29;20027;-72
2023/11/01 03:09:57;;;;;;;58.35;54.83;;;13.50;99.90;;;;;;4955991;28;20054;-73
2023/11/01 03:12:23;;;;;;;80.30;75.55;;;13.50;99.90;;;;;;4972274;28;20034;-72
2023/11/01 03:14:49;;;;;;;35.42;33.03;;;13.50;99.90;;;;;;4990256;28;20519;-73
2023/11/01 03:17:15;;;;;;;53.20;50.22;;;13.40;99.90;;;;;;4974251;28;20055;-72
2023/11/01 03:19:41;;;;;;;66.88;63.10;;;13.30;99.90;;;;;;4968310;28;20062;-72
2023/11/01 03:22:07;;;;;;;52.80;49.58;;;13.20;99.90;;;;;;4955878;28;20476;-73
2023/11/01 03:24:34;;;;;;;34.25;31.92;;;13.20;99.90;;;;;;4938906;29;20035;-72
2023/11/01 03:27:00;;;;;;;43.35;40.75;;;13.20;99.90;;;;;;4955150;28;20055;-73
2023/11/01 03:29:26;;;;;;;36.42;33.75;;;13.10;99.90;;;;;;4958652;28;20039;-73
2023/11/01 03:31:52;;;;;;;37.75;35.47;;;13.10;99.90;;;;;;4960752;28;20400;-73
2023/11/01 03:34:19;;;;;;;33.63;31.67;;;13.20;99.90;;;;;;4955748;29;20032;-73
2023/11/01 03:36:45;;;;;;;46.97;44.30;;;13.30;99.90;;;;;;4954299;28;20034;-72
2023/11/01 03:39:13;;;;;;;54.67;51.58;;;13.30;99.90;;;;;;4954274;28;20039;-73
2023/11/01 03:41:42;;;;;;;55.55;52.22;;;13.40;99.90;;;;;;4962896;28;20054;-72
2023/11/01 03:44:08;;;;;;;59.78;56.58;;;13.40;99.90;;;;;;4955490;29;20039;-72
2023/11/01 03:46:35;;;;;;;56.55;53.40;;;13.40;99.90;;;;;;4953602;28;20496;-72
2023/11/01 03:49:01;;;;;;;53.05;50.08;;;13.40;99.90;;;;;;4954387;29;20027;-72
2023/11/01 03:51:27;;;;;;;75.70;71.78;;;13.50;99.90;;;;;;4961682;28;20032;-73
2023/11/01 03:53:53;;;;;;;61.50;58.05;;;13.50;99.90;;;;;;4955440;29;20043;-72
2023/11/01 03:56:20;;;;;;;64.78;60.97;;;13.50;99.90;;;;;;4953614;28;20031;-72
2023/11/01 03:58:46;;;;;;;64.68;61.10;;;13.60;99.90;;;;;;4955290;29;20039;-73
2023/11/01 04:01:13;;;;;;;56.58;53.08;;;13.60;99.90;;;;;;4952990;28;20047;-72
2023/11/01 04:03:39;;;;;;;72.65;68.85;;;13.60;99.90;;;;;;4970190;28;20372;-72
2023/11/01 04:06:05;;;;;;;64.07;60.67;;;13.70;99.90;;;;;;4974151;28;20027;-73
2023/11/01 04:08:31;;;;;;;78.60;74.43;;;13.60;99.90;;;;;;4974476;28;20027;-72
2023/11/01 04:10:57;;;;;;;81.53;77.15;;;13.70;99.90;;;;;;4966696;28;20031;-72
2023/11/01 04:13:23;;;;;;;74.47;70.57;;;13.70;99.90;;;;;;4955045;29;20027;-73
2023/11/01 04:15:49;;;;;;;82.22;77.47;;;13.70;99.90;;;;;;4954194;28;20039;-70
2023/11/01 04:18:15;;;;;;;82.97;78.45;;;13.70;99.90;;;;;;4921685;29;20078;-73
2023/11/01 04:20:42;;;;;;;76.93;72.82;;;13.80;99.90;;;;;;4960358;28;20051;-73
2023/11/01 04:23:09;;;;;;;86.78;82.05;;;13.80;99.90;;;;;;4953635;29;20031;-73
2023/11/01 04:25:35;;;;;;;85.32;80.57;;;13.80;99.90;;;;;;4954399;28;20380;-73
2023/11/01 04:28:02;;;;;;;78.55;74.53;;;13.80;99.90;;;;;;4955125;28;20046;-73
2023/11/01 04:30:38;;;;;;;86.05;81.60;;;13.80;99.90;;;;;;4954810;28;20043;-73
2023/11/01 04:33:07;;;;;;;79.15;74.93;;;13.80;99.90;;;;;;4954668;29;20030;-72
2023/11/01 04:35:36;;;;;;;74.28;70.53;;;13.80;99.90;;;;;;4953313;28;20085;-73
2023/11/01 04:38:03;;;;;;;79.10;74.90;;;13.90;99.90;;;;;;4954656;29;20381;-73
2023/11/01 04:40:29;;;;;;;78.00;73.97;;;13.90;99.90;;;;;;4962104;28;20034;-73
2023/11/01 04:42:55;;;;;;;81.53;77.15;;;13.90;99.90;;;;;;4956601;28;20392;-73
2023/11/01 04:45:21;;;;;;;84.93;80.68;;;13.90;99.90;;;;;;4954196;28;20049;-72
2023/11/01 04:47:47;;;;;;;89.28;84.68;;;13.80;99.90;;;;;;4954473;29;20031;-72
2023/11/01 04:50:14;;;;;;;82.93;78.70;;;13.90;99.90;;;;;;4960605;28;20033;-72
2023/11/01 04:52:41;;;;;;;84.60;80.22;;;13.90;99.90;;;;;;4954509;29;20519;-73
2023/11/01 04:55:10;;;;;;;86.93;82.47;;;13.80;99.90;;;;;;4936970;29;20405;-72
2023/11/01 04:57:36;;;;;;;83.63;79.10;;;13.80;99.90;;;;;;4953344;29;20035;-73
2023/11/01 05:00:11;;;;;;;76.40;72.35;;;13.80;99.90;;;;;;4974463;28;20046;-72
2023/11/01 05:02:38;;;;;;;71.85;68.20;;;13.80;99.90;;;;;;4970857;28;20047;-72
2023/11/01 05:05:05;;;;;;;74.75;70.30;;;13.80;99.90;;;;;;4968985;28;20023;-73
2023/11/01 05:07:35;;;;;;;70.93;67.00;;;13.80;99.90;;;;;;4952451;29;20051;-72
2023/11/01 05:10:02;;;;;;;72.13;68.10;;;13.80;99.90;;;;;;4957955;28;20035;-72
2023/11/01 05:12:28;;;;;;;60.70;57.55;;;13.80;99.90;;;;;;4968722;28;20374;-72
2023/11/01 05:14:54;;;;;;;66.05;62.20;;;13.80;99.90;;;;;;4954427;29;20038;-72
2023/11/01 05:17:21;;;;;;;68.75;64.90;;;13.80;99.90;;;;;;4952030;28;20055;-72
2023/11/01 05:19:47;;;;;;;66.97;62.75;;;13.80;99.90;;;;;;4953363;28;20042;-72
2023/11/01 05:22:13;;;;;;;58.97;55.33;;;13.80;99.90;;;;;;4966416;28;20392;-72
2023/11/01 05:24:39;;;;;;;42.92;40.63;;;13.80;99.90;;;;;;4968868;28;20031;-72
2023/11/01 05:27:08;;;;;;;60.13;56.97;;;13.80;99.90;;;;;;4968607;28;20031;-72
2023/11/01 05:29:34;;;;;;;63.78;60.05;;;13.80;99.90;;;;;;4953756;28;20031;-72
2023/11/01 05:32:00;;;;;;;57.17;53.88;;;13.80;99.90;;;;;;4952890;28;20066;-72
2023/11/01 05:34:26;;;;;;;53.15;49.95;;;13.80;99.90;;;;;;4940732;29;20381;-73
2023/11/01 05:36:52;;;;;;;47.70;44.80;;;13.80;99.90;;;;;;4957309;28;20035;-72
2023/11/01 05:39:19;;;;;;;48.15;44.85;;;13.80;99.90;;;;;;4962047;28;20385;-72
2023/11/01 05:41:51;;;;;;;46.95;44.17;;;13.80;99.90;;;;;;4969139;28;20058;-72
2023/11/01 05:44:20;;;;;;;43.50;40.47;;;13.80;99.90;;;;;;4975878;28;20042;-72
2023/11/01 05:46:47;;;;;;;54.33;51.17;;;13.80;99.90;;;;;;4976109;28;20043;-72
2023/11/01 05:49:14;;;;;;;51.67;48.70;;;13.80;99.90;;;;;;4974841;28;20031;-72
2023/11/01 05:51:40;;;;;;;48.30;45.58;;;13.80;99.90;;;;;;4971603;28;20039;-72
2023/11/01 05:54:08;;;;;;;46.75;43.95;;;13.80;99.90;;;;;;4956556;28;20043;-73
2023/11/01 05:56:34;;;;;;;43.30;40.30;;;13.80;99.90;;;;;;4957207;28;20027;-72
2023/11/01 05:59:00;;;;;;;45.53;42.70;;;13.80;99.90;;;;;;4962867;28;20037;-72
2023/11/01 06:01:26;;;;;;;43.78;40.70;;;13.80;99.90;;;;;;4971403;28;20055;-72
2023/11/01 06:03:56;;;;;;;41.50;38.70;;;13.80;99.90;;;;;;4956191;28;20050;-72
2023/11/01 06:06:25;;;;;;;48.80;45.88;;;13.80;99.90;;;;;;4955588;28;20035;-72
2023/11/01 06:08:51;;;;;;;54.53;50.92;;;13.80;99.90;;;;;;4958130;28;20042;-72
2023/11/01 06:11:18;;;;;;;64.95;60.72;;;13.80;99.90;;;;;;4965609;28;20046;-72
2023/11/01 06:13:44;;;;;;;77.03;72.38;;;13.80;99.90;;;;;;4969358;28;20031;-73
2023/11/01 06:16:10;;;;;;;66.32;62.35;;;13.80;99.90;;;;;;4959225;28;20034;-72
2023/11/01 06:18:37;;;;;;;40.63;38.08;;;13.80;99.90;;;;;;4972697;28;20034;-72
2023/11/01 06:21:04;;;;;;;45.25;42.40;;;13.80;99.90;;;;;;4955606;28;20043;-72
2023/11/01 06:23:30;;;;;;;39.70;36.67;;;13.80;99.90;;;;;;4968014;28;20023;-72
2023/11/01 06:25:58;;;;;;;37.53;34.92;;;13.80;99.90;;;;;;4956723;29;20043;-72
2023/11/01 06:28:26;;;;;;;41.42;38.50;;;13.80;99.90;;;;;;4958007;28;20054;-72
2023/11/01 06:30:52;;;;;;;35.50;32.78;;;13.80;99.90;;;;;;4974312;28;20035;-72
2023/11/01 06:33:18;;;;;;;42.42;39.50;;;13.70;99.90;;;;;;4975871;28;20042;-72
2023/11/01 06:35:45;;;;;;;26.02;23.92;;;13.70;99.90;;;;;;4975674;28;20372;-72
2023/11/01 06:38:11;;;;;;;26.65;24.25;;;13.60;99.90;;;;;;4975064;28;20042;-72
2023/11/01 06:40:37;;;;;;;24.67;22.42;;;13.60;99.90;;;;;;4957649;28;20050;-73
2023/11/01 06:43:04;;;;;;;25.20;23.10;;;13.50;99.90;;;;;;4969062;28;20031;-72
2023/11/01 06:45:30;;;;;;;26.98;24.80;;;13.50;99.90;;;;;;4973712;28;20038;-72
2023/11/01 06:47:56;;;;;;;39.53;36.75;;;13.40;99.90;;;;;;4971608;28;20393;-73
2023/11/01 06:50:22;;;;;;;25.73;23.38;;;13.50;99.90;;;;;;4970250;28;20035;-72
2023/11/01 06:52:48;;;;;;;22.23;20.30;;;13.40;99.90;;;;;;4973805;28;20035;-73
2023/11/01 06:55:16;;;;;;;22.67;20.95;;;13.30;99.90;;;;;;4975647;28;20464;-73
2023/11/01 06:57:42;;;;;;;22.33;20.58;;;13.30;99.90;;;;;;4974823;28;20408;-73
2023/11/01 07:00:09;;;;;;;25.45;23.10;;;13.30;99.90;;;;;;4973852;28;20034;-72
2023/11/01 07:02:35;;;;;;;26.73;24.63;;;13.20;99.90;;;;;;4974364;28;20034;-72
2023/11/01 07:05:04;;;;;;;24.63;22.25;;;13.20;99.90;;;;;;4974067;28;20031;-72
2023/11/01 07:07:31;;;;;;;22.95;21.05;;;13.20;99.90;;;;;;4970449;28;20031;-72
2023/11/01 07:09:58;;;;;;;28.27;26.45;;;13.20;99.90;;;;;;4977680;28;20511;-72
2023/11/01 07:12:24;;;;;;;23.35;21.75;;;13.30;99.90;;;;;;4975226;28;20046;-72
2023/11/01 07:14:50;;;;;;;30.25;28.35;;;13.30;99.90;;;;;;4974274;28;20358;-72
2023/11/01 07:17:16;;;;;;;32.03;29.95;;;13.30;99.90;;;;;;4969631;28;20074;-73
2023/11/01 07:19:42;;;;;;;27.73;25.90;;;13.30;99.90;;;;;;4961700;28;20476;-72
2023/11/01 07:22:08;;;;;;;26.05;24.02;;;13.20;99.90;;;;;;4968428;28;20043;-72
2023/11/01 07:24:34;;;;;;;26.30;24.77;;;13.20;99.90;;;;;;4970619;28;20389;-73
2023/11/01 07:27:00;;;;;;;55.75;52.45;;;13.30;99.90;;;;;;4974129;28;20035;-72
2023/11/01 07:29:26;;;;;;;55.03;51.53;;;13.20;99.90;;;;;;4973986;28;20030;-72
2023/11/01 07:31:52;;;;;;;48.17;44.95;;;13.20;99.90;;;;;;4962084;28;20493;-72
2023/11/01 07:34:19;;;;;;;49.35;46.10;;;13.10;99.90;;;;;;4955320;29;20027;-71
2023/11/01 07:36:45;;;;;;;50.95;47.97;;;13.10;99.90;;;;;;4982271;28;20031;-72
2023/11/01 07:39:11;;;;;;;38.80;36.38;;;13.20;99.90;;;;;;4955080;28;20042;-72
2023/11/01 07:41:38;;;;;;;46.42;43.53;;;13.20;99.90;;;;;;4955598;28;20047;-71
2023/11/01 07:44:05;;;;;;;37.22;35.15;;;13.20;99.90;;;;;;4954360;29;20026;-72
2023/11/01 07:46:31;;;;;;;34.42;32.45;;;13.30;99.90;;;;;;4954795;28;20429;-73
2023/11/01 07:48:57;;;;;;;37.53;35.28;;;13.20;99.90;;;;;;4969253;28;20042;-70
2023/11/01 07:51:23;;;;;;;31.08;29.02;;;13.20;99.90;;;;;;4963684;28;20031;-71
2023/11/01 07:53:50;;;;;;;30.80;28.95;;;13.30;99.90;;;;;;4938386;29;20019;-72
2023/11/01 07:56:16;;;;;;;24.48;22.83;;;13.30;99.90;;;;;;4952890;28;20484;-72
2023/11/01 07:58:47;;;;;;;22.30;20.80;;;13.30;99.90;;;;;;4953835;29;20070;-73
2023/11/01 08:01:13;;;;;;;18.50;17.05;;;13.30;99.90;;;;;;4962705;28;20053;-72
2023/11/01 08:03:39;;;;;;;20.80;19.38;;;13.40;99.90;;;;;;4974231;28;20031;-72
2023/11/01 08:06:06;;;;;;;20.75;18.95;;;13.40;99.90;;;;;;4973738;28;20035;-72
2023/11/01 08:08:32;;;;;;;21.85;20.15;;;13.50;99.90;;;;;;4974203;28;20106;-72
2023/11/01 08:10:58;;;;;;;19.45;18.02;;;13.50;99.90;;;;;;4969368;28;20416;-71
2023/11/01 08:13:24;;;;;;;21.80;20.00;;;13.50;99.90;;;;;;4954882;28;20031;-72
2023/11/01 08:15:50;;;;;;;32.10;29.77;;;13.60;99.90;;;;;;4966778;28;20035;-72
2023/11/01 08:18:23;;;;;;;23.73;22.17;;;13.60;99.90;;;;;;5069383;28;20417;-72
2023/11/01 08:20:49;;;;;;;19.83;18.30;;;13.70;99.90;;;;;;5071117;28;20036;-72
2023/11/01 08:23:15;;;;;;;29.88;27.88;;;13.70;99.90;;;;;;5059585;28;20028;-72
2023/11/01 08:25:41;;;;;;;22.02;20.38;;;13.70;99.90;;;;;;5069050;28;20032;-72
2023/11/01 08:28:07;;;;;;;20.83;18.70;;;13.80;99.90;;;;;;5068375;28;20465;-72
2023/11/01 08:30:34;;;;;;;23.30;21.80;;;13.90;99.90;;;;;;5063926;28;20033;-72
2023/11/01 08:33:00;;;;;;;23.42;21.48;;;13.90;99.90;;;;;;5048119;28;20036;-71
2023/11/01 08:35:26;;;;;;;24.08;22.50;;;13.90;99.90;;;;;;5047488;28;20029;-72
2023/11/01 08:37:52;;;;;;;21.63;20.08;;;13.90;99.90;;;;;;5031458;28;20041;-72
2023/11/01 08:40:18;;;;;;;19.55;17.95;;;13.90;99.90;;;;;;5033099;28;20026;-71
2023/11/01 08:42:45;;;;;;;21.27;19.60;;;13.90;99.90;;;;;;5048212;28;20037;-72
2023/11/01 08:45:11;;;;;;;18.77;17.05;;;13.90;99.90;;;;;;5048230;28;20032;-72
2023/11/01 08:47:42;;;;;;;20.10;18.10;;;13.90;99.90;;;;;;5049178;28;20045;-72
2023/11/01 08:50:12;;;;;;;21.73;19.45;;;13.90;99.90;;;;;;5047566;28;20044;-72
2023/11/01 08:52:45;;;;;;;22.35;20.20;;;14.00;99.90;;;;;;5047860;28;20048;-72
2023/11/01 08:55:14;;;;;;;23.65;21.58;;;14.00;99.90;;;;;;5047641;28;20025;-72
2023/11/01 08:57:40;;;;;;;24.27;22.42;;;14.10;99.90;;;;;;5038298;28;20045;-71
2023/11/01 09:00:08;;;;;;;22.83;21.10;;;14.10;99.90;;;;;;5035430;28;20030;-72
2023/11/01 09:02:34;;;;;;;28.85;22.73;;;14.10;99.90;;;;;;5041448;28;20041;-72
2023/11/01 09:05:00;;;;;;;25.17;22.58;;;14.20;99.90;;;;;;5030283;28;20029;-72
2023/11/01 09:07:26;;;;;;;25.83;23.63;;;14.20;99.90;;;;;;5047089;28;20029;-72
2023/11/01 09:09:53;;;;;;;28.55;26.30;;;14.20;99.90;;;;;;5047106;28;20021;-72
2023/11/01 09:12:19;;;;;;;22.90;21.00;;;14.20;99.90;;;;;;5047816;28;20033;-72
2023/11/01 09:14:46;;;;;;;25.13;22.98;;;14.20;99.90;;;;;;5028187;28;20025;-71
2023/11/01 09:17:12;;;;;;;35.05;31.98;;;14.20;99.90;;;;;;5043097;28;20568;-72
2023/11/01 09:19:39;;;;;;;32.75;29.95;;;14.30;99.90;;;;;;5030693;28;20417;-72
2023/11/01 09:22:05;;;;;;;39.90;36.80;;;14.30;99.90;;;;;;5046468;28;20037;-72
2023/11/01 09:24:32;;;;;;;40.75;37.95;;;14.40;99.90;;;;;;5048029;28;20037;-71
2023/11/01 09:26:58;;;;;;;31.83;29.42;;;14.40;99.90;;;;;;5046756;28;20127;-71
2023/11/01 09:29:24;;;;;;;32.80;29.75;;;14.40;99.90;;;;;;5035679;28;20026;-72
2023/11/01 09:31:50;;;;;;;33.08;30.38;;;14.40;99.90;;;;;;5043449;28;20398;-72
2023/11/01 09:34:16;;;;;;;34.53;31.75;;;14.40;99.90;;;;;;5028221;28;20034;-72
2023/11/01 09:36:42;;;;;;;50.25;45.65;;;14.40;99.90;;;;;;5019499;28;20379;-71
2023/11/01 09:39:08;;;;;;;30.17;27.33;;;14.40;99.90;;;;;;5033392;28;20044;-72
2023/11/01 09:41:40;;;;;;;27.70;25.48;;;14.40;99.90;;;;;;5033294;28;20037;-72
2023/11/01 09:44:06;;;;;;;29.17;26.48;;;14.40;99.90;;;;;;5033228;28;20049;-72
2023/11/01 09:46:32;;;;;;;42.22;38.65;;;14.50;99.90;;;;;;5030526;28;20037;-72
2023/11/01 09:48:59;;;;;;;51.08;47.00;;;14.50;99.90;;;;;;5030049;28;20033;-71
2023/11/01 09:51:26;;;;;;;53.65;49.70;;;14.50;99.90;;;;;;5045689;28;20030;-72
2023/11/01 09:53:52;;;;;;;57.40;53.03;;;14.50;99.90;;;;;;5016690;28;20022;-71
2023/11/01 09:56:19;;;;;;;49.42;45.97;;;14.50;99.90;;;;;;5024652;28;20524;-71
2023/11/01 09:58:46;;;;;;;53.05;48.95;;;14.40;99.90;;;;;;5033008;28;20041;-71
2023/11/01 10:01:13;;;;;;;63.83;59.67;;;14.50;99.90;;;;;;5026392;28;20038;-72
2023/11/01 10:03:40;;;;;;;66.07;61.50;;;14.50;99.90;;;;;;5015290;28;20030;-71
2023/11/01 10:06:07;;;;;;;48.58;45.08;;;14.50;99.90;;;;;;5027534;28;20573;-72
2023/11/01 10:08:33;;;;;;;65.20;60.92;;;14.60;99.90;;;;;;5032757;28;20021;-72
2023/11/01 10:11:03;;;;;;;63.28;58.78;;;14.60;99.90;;;;;;5024440;28;20497;-71
2023/11/01 10:13:30;;;;;;;68.18;63.58;;;14.70;99.90;;;;;;5033876;28;20386;-72
2023/11/01 10:15:56;;;;;;;75.18;70.70;;;14.80;99.90;;;;;;5031397;28;20418;-70
2023/11/01 10:18:22;;;;;;;61.15;57.50;;;14.90;99.90;;;;;;5034089;28;20040;-72
2023/11/01 10:20:48;;;;;;;71.03;66.55;;;15.00;99.90;;;;;;5030350;28;20383;-72
2023/11/01 10:23:14;;;;;;;75.55;71.32;;;15.00;99.90;;;;;;5033895;28;20478;-72
2023/11/01 10:25:44;;;;;;;77.95;73.43;;;15.10;99.90;;;;;;5032389;28;20037;-67
2023/11/01 10:28:13;;;;;;;79.15;74.38;;;15.10;99.90;;;;;;5033335;28;20036;-71
2023/11/01 10:30:44;;;;;;;73.22;68.65;;;15.30;99.90;;;;;;5031394;28;20045;-70
2023/11/01 10:33:10;;;;;;;87.65;82.45;;;15.30;99.90;;;;;;5032476;28;20037;-70
2023/11/01 10:35:36;;;;;;;82.70;77.53;;;15.40;99.90;;;;;;5032294;28;20030;-70
2023/11/01 10:38:02;;;;;;;113.47;107.03;;;15.50;99.90;;;;;;5029418;28;20038;-70
2023/11/01 10:40:32;;;;;;;108.63;102.00;;;15.50;99.90;;;;;;5024749;28;20037;-70
2023/11/01 10:43:00;;;;;;;94.15;88.35;;;15.50;99.90;;;;;;5031647;28;20044;-69
2023/11/01 10:45:26;;;;;;;87.43;82.07;;;15.40;99.90;;;;;;5031576;28;20589;-70
2023/11/01 10:47:52;;;;;;;83.95;78.20;;;15.40;99.90;;;;;;5032629;28;20041;-69
2023/11/01 10:50:24;;;;;;;85.13;79.45;;;15.30;99.90;;;;;;5031165;28;20045;-66
2023/11/01 10:52:50;;;;;;;72.03;66.57;;;15.20;99.90;;;;;;5030550;28;20041;-75
2023/11/01 10:55:20;;;;;;;81.15;74.75;;;15.20;99.90;;;;;;5030909;28;20038;-75
2023/11/01 10:57:51;;;;;;;89.32;83.10;;;15.10;99.90;;;;;;5031311;28;20052;-75
2023/11/01 11:00:24;;;;;;;78.78;73.43;;;15.10;99.90;;;;;;5029671;28;20065;-67
2023/11/01 11:03:18;;;;;;;67.38;62.67;;;15.00;99.90;;;;;;5023918;28;20040;-67
2023/11/01 11:05:44;;;;;;;61.55;57.70;;;15.00;99.90;;;;;;5016898;28;20044;-67
2023/11/01 11:08:11;;;;;;;58.83;55.13;;;14.80;99.90;;;;;;5015309;28;20475;-67
2023/11/01 11:10:42;;;;;;;66.57;62.50;;;14.70;99.90;;;;;;5020560;28;20402;-67
2023/11/01 11:13:08;;;;;;;54.08;50.67;;;14.70;99.90;;;;;;5024906;28;20036;-67
2023/11/01 11:15:58;;;;;;;52.25;48.60;;;14.60;99.90;;;;;;5022134;28;20033;-67
2023/11/01 11:18:27;;;;;;;46.92;43.95;;;14.60;99.90;;;;;;5032822;28;20381;-67
2023/11/01 11:21:00;;;;;;;43.05;39.90;;;14.50;99.90;;;;;;5011229;28;20026;-67
2023/11/01 11:23:32;;;;;;;37.33;34.47;;;14.60;99.90;;;;;;5013122;28;20038;-67
2023/11/01 11:25:59;;;;;;;49.33;45.65;;;14.60;99.90;;;;;;5017776;28;20080;-68
2023/11/01 11:28:31;;;;;;;40.88;37.47;;;14.60;99.90;;;;;;5014262;28;20049;-67
2023/11/01 11:31:15;;;;;;;34.28;31.25;;;14.80;99.90;;;;;;5029457;28;20037;-67
2023/11/01 11:33:44;;;;;;;34.75;31.48;;;14.80;99.90;;;;;;5029745;28;20057;-67
2023/11/01 11:36:23;;;;;;;44.35;41.05;;;14.80;99.90;;;;;;5030210;28;20029;-68
2023/11/01 11:38:53;;;;;;;44.90;40.88;;;14.90;99.90;;;;;;5027351;28;20461;-68
2023/11/01 11:41:23;;;;;;;65.95;61.78;;;14.90;99.90;;;;;;5031705;28;20577;-68
2023/11/01 11:44:08;;;;;;;51.15;47.40;;;15.00;99.90;;;;;;5031904;28;20063;-68
2023/11/01 11:46:39;;;;;;;38.33;35.63;;;15.00;99.90;;;;;;5029629;28;20036;-67
2023/11/01 11:49:09;;;;;;;;;;;15.10;99.90;;;;;;5032860;28;20029;-67
2023/11/01 11:51:35;;;;;;;43.22;39.35;;;15.20;99.90;;;;;;5031260;28;19916;-68
2023/11/01 11:54:12;;;;;;;47.80;43.65;;;15.30;99.90;;;;;;5030516;28;20502;-68
2023/11/01 11:56:39;;;;;;;60.53;55.50;;;15.40;99.90;;;;;;5031207;28;20546;-68
2023/11/01 11:59:05;;;;;;;56.17;52.25;;;15.50;99.90;;;;;;5030430;28;20041;-68
2023/11/01 12:01:31;;;;;;;76.18;70.57;;;15.60;99.90;;;;;;5030809;28;20037;-68
2023/11/01 12:03:58;;;;;;;81.18;76.10;;;15.60;99.90;;;;;;5031788;28;20044;-68
2023/11/01 12:06:25;;;;;;;73.22;68.50;;;15.70;99.90;;;;;;5031037;28;20048;-70
2023/11/01 12:08:51;;;;;;;69.85;65.57;;;15.70;99.90;;;;;;5031058;28;20041;-67
2023/11/01 12:11:17;;;;;;;79.20;74.03;;;15.70;99.90;;;;;;5022022;28;20053;-68
2023/11/01 12:13:44;;;;;;;86.00;80.70;;;15.70;99.90;;;;;;5030832;28;20040;-70
2023/11/01 12:16:26;;;;;;;83.35;78.38;;;15.80;99.90;;;;;;5024896;28;20494;-70
2023/11/01 12:19:18;;;;;;;117.13;110.70;;;15.80;99.90;;;;;;5027110;28;20402;-70
2023/11/01 12:22:05;;;;;;;86.75;81.30;;;15.80;99.90;;;;;;5027979;28;20030;-69
2023/11/01 12:24:37;;;;;;;94.82;89.22;;;15.90;99.90;;;;;;5029578;28;20034;-69
2023/11/01 12:27:09;;;;;;;97.80;92.28;;;15.90;99.90;;;;;;5028976;28;20044;-69
2023/11/01 12:29:45;;;;;;;103.78;98.10;;;16.00;99.90;;;;;;5030677;28;20033;-70